Time;durP1;ratioP1;P1;durP2;ratioP2;P2;SDS_P1;SDS_P2;PMS_P1;PMS_P2;Temp;Humidity;BMP_temperature;BMP_pressure;BME280_temperature;BME280_humidity;BME280_pressure;Samples;Min_cycle;Max_cycle;Signal;HPM_P1;HPM_P2
2021/11/30 00:01:03;;;;;;;0.77;0.77;;;;;;;7.13;87.88;95979.81;6183240;23;20021;-71
2021/11/30 00:03:29;;;;;;;0.80;0.80;;;;;;;7.23;87.56;95970.09;6183253;23;20501;-71
2021/11/30 00:05:55;;;;;;;0.88;0.88;;;;;;;7.21;88.48;95951.31;6183665;23;20021;-73
2021/11/30 00:08:22;;;;;;;1.95;0.90;;;;;;;7.29;88.20;95933.19;6183385;23;20525;-71
2021/11/30 00:10:48;;;;;;;0.88;0.88;;;;;;;7.20;87.63;95922.94;6183085;23;20354;-71
2021/11/30 00:13:16;;;;;;;0.70;0.70;;;;;;;7.28;88.18;95916.00;6183079;23;20051;-69
2021/11/30 00:15:44;;;;;;;0.90;0.90;;;;;;;7.32;87.47;95877.59;6183682;23;20027;-71
2021/11/30 00:18:10;;;;;;;0.70;0.70;;;;;;;7.33;87.74;95890.38;6183060;23;20358;-71
2021/11/30 00:20:37;;;;;;;0.82;0.82;;;;;;;7.33;87.75;95863.63;6157198;23;20013;-72
2021/11/30 00:23:03;;;;;;;3.30;0.95;;;;;;;7.40;87.43;95856.81;6183612;23;20055;-72
2021/11/30 00:25:29;;;;;;;0.70;0.70;;;;;;;7.48;87.86;95840.44;6182870;23;20481;-71
2021/11/30 00:27:55;;;;;;;0.80;0.80;;;;;;;7.46;87.61;95819.06;6183013;23;20439;-70
2021/11/30 00:30:22;;;;;;;0.82;0.82;;;;;;;7.43;87.72;95817.56;6157090;23;20017;-71
2021/11/30 00:32:49;;;;;;;0.80;0.80;;;;;;;7.48;88.15;95794.56;6182937;23;20023;-71
2021/11/30 00:35:15;;;;;;;0.70;0.70;;;;;;;7.53;87.61;95794.88;6183140;23;20028;-70
2021/11/30 00:37:41;;;;;;;0.77;0.77;;;;;;;7.54;87.45;95764.53;6156934;23;20071;-70
2021/11/30 00:40:08;;;;;;;0.77;0.77;;;;;;;7.48;88.05;95760.03;6183057;23;20021;-70
2021/11/30 00:42:35;;;;;;;0.60;0.60;;;;;;;7.43;87.79;95731.97;6182978;23;20016;-70
2021/11/30 00:45:04;;;;;;;0.93;0.93;;;;;;;7.49;87.80;95741.72;6182927;23;20021;-70
2021/11/30 00:47:30;;;;;;;0.70;0.70;;;;;;;7.47;87.98;95725.47;6182805;23;20025;-70
2021/11/30 00:49:58;;;;;;;0.60;0.60;;;;;;;7.48;88.62;95708.94;6182690;23;20342;-71
2021/11/30 00:52:24;;;;;;;0.80;0.80;;;;;;;7.58;87.64;95693.19;6182765;23;20017;-71
2021/11/30 00:54:50;;;;;;;0.77;0.77;;;;;;;7.45;87.63;95678.16;6182954;23;20021;-72
2021/11/30 00:57:17;;;;;;;0.73;0.73;;;;;;;7.59;88.43;95674.06;6182621;23;20017;-75
2021/11/30 00:59:43;;;;;;;0.70;0.70;;;;;;;7.55;87.83;95675.38;6182899;23;20021;-75
2021/11/30 01:02:09;;;;;;;0.80;0.80;;;;;;;7.62;88.30;95656.38;6183073;23;20017;-75
2021/11/30 01:04:35;;;;;;;0.80;0.80;;;;;;;7.56;87.75;95641.44;6183292;23;20040;-75
2021/11/30 01:07:01;;;;;;;0.75;0.75;;;;;;;7.55;87.65;95624.28;6182737;23;20521;-75
2021/11/30 01:09:27;;;;;;;0.73;0.73;;;;;;;7.53;88.32;95610.66;6183796;23;20017;-77
2021/11/30 01:11:54;;;;;;;0.70;0.70;;;;;;;7.63;88.15;95607.84;6185938;23;20013;-76
2021/11/30 01:14:21;;;;;;;0.88;0.88;;;;;;;7.57;87.86;95591.19;6185884;23;20021;-76
2021/11/30 01:16:47;;;;;;;0.90;0.90;;;;;;;7.66;87.74;95581.56;6160129;23;20044;-75
2021/11/30 01:19:17;;;;;;;0.90;0.90;;;;;;;7.59;88.08;95565.09;6161010;23;20021;-75
2021/11/30 01:21:43;;;;;;;0.90;0.90;;;;;;;7.65;88.30;95549.63;6159602;23;20044;-77
2021/11/30 01:24:10;;;;;;;0.90;0.90;;;;;;;7.64;87.98;95526.44;6187126;23;20121;-76
2021/11/30 01:26:36;;;;;;;0.88;0.88;;;;;;;7.65;88.06;95520.28;6185874;23;20021;-76
2021/11/30 01:29:05;;;;;;;1.00;1.00;;;;;;;7.64;88.02;95510.88;6185850;23;20148;-76
2021/11/30 01:31:31;;;;;;;1.10;1.10;;;;;;;7.69;88.02;95503.41;6184400;23;20430;-77
2021/11/30 01:33:58;;;;;;;1.30;1.30;;;;;;;7.69;88.59;95499.00;6159610;23;20340;-76
2021/11/30 01:36:24;;;;;;;1.15;1.15;;;;;;;7.70;88.27;95473.84;6179920;23;20017;-68
2021/11/30 01:38:51;;;;;;;1.15;1.15;;;;;;;7.79;88.06;95472.78;6141261;23;20057;-66
2021/11/30 01:49:35;;;;;;;1.27;1.27;;;;;;;7.91;88.54;95431.66;6122067;23;20462;-67
2021/11/30 01:52:08;;;;;;;1.52;1.52;;;;;;;7.96;88.24;95424.16;6121985;23;20014;-66
2021/11/30 01:54:38;;;;;;;1.60;1.60;;;;;;;8.04;88.72;95392.94;6121635;23;20069;-65
2021/11/30 01:57:09;;;;;;;1.60;1.60;;;;;;;8.06;88.37;95403.94;6122279;23;20160;-67
2021/11/30 01:59:35;;;;;;;1.83;1.80;;;;;;;8.07;88.81;95395.97;6120248;23;20029;-66
2021/11/30 02:02:02;;;;;;;2.10;1.90;;;;;;;8.10;89.29;95393.03;6121914;23;20021;-65
2021/11/30 02:04:28;;;;;;;1.98;1.90;;;;;;;8.19;89.07;95368.56;6121671;23;20022;-65
2021/11/30 02:06:54;;;;;;;1.95;1.85;;;;;;;8.29;88.91;95376.94;6121848;23;20108;-65
2021/11/30 02:09:20;;;;;;;2.10;2.00;;;;;;;8.47;89.01;95368.78;6121648;23;20018;-65
2021/11/30 02:11:46;;;;;;;2.20;2.00;;;;;;;8.52;89.06;95363.81;6121866;23;20462;-64
2021/11/30 02:14:13;;;;;;;1.90;1.90;;;;;;;8.62;88.27;95366.13;6122255;23;20024;-65
2021/11/30 02:16:39;;;;;;;2.20;2.10;;;;;;;8.69;88.96;95341.03;6122065;23;20024;-66
2021/11/30 02:19:05;;;;;;;10.77;3.40;;;;;;;8.71;88.79;95328.63;6121898;23;20025;-69
2021/11/30 02:21:35;;;;;;;2.33;2.22;;;;;;;8.77;88.71;95333.91;6121533;23;20121;-68
2021/11/30 02:24:02;;;;;;;2.30;2.20;;;;;;;8.87;88.82;95325.81;6122080;23;20021;-67
2021/11/30 02:26:29;;;;;;;2.08;1.98;;;;;;;8.96;88.29;95314.31;6144465;23;20022;-68
2021/11/30 02:28:59;;;;;;;2.30;2.20;;;;;;;9.07;88.50;95308.59;6122114;23;20037;-68
2021/11/30 02:31:27;;;;;;;2.90;2.75;;;;;;;9.18;88.87;95300.31;6120292;23;20018;-68
2021/11/30 02:33:53;;;;;;;5.18;3.00;;;;;;;9.26;89.26;95313.16;6121974;23;20024;-67
2021/11/30 02:36:25;;;;;;;3.40;3.20;;;;;;;9.50;88.37;95313.75;6123274;23;20040;-68
2021/11/30 02:38:52;;;;;;;2.72;2.63;;;;;;;9.72;87.68;95297.06;6151187;23;20029;-67
2021/11/30 02:41:18;;;;;;;2.88;2.70;;;;;;;9.68;87.56;95285.47;6150650;23;20547;-68
2021/11/30 02:43:44;;;;;;;2.92;2.60;;;;;;;9.79;88.60;95288.31;6151292;23;20121;-66
2021/11/30 02:46:10;;;;;;;2.42;2.22;;;;;;;9.88;87.48;95274.13;6125122;23;20026;-67
2021/11/30 02:48:36;;;;;;;2.40;2.30;;;;;;;9.95;88.03;95267.16;6150849;23;20017;-66
2021/11/30 02:51:07;;;;;;;2.42;2.33;;;;;;;10.06;87.91;95278.84;6151094;23;20060;-66
2021/11/30 02:53:33;;;;;;;1.95;1.85;;;;;;;10.22;87.48;95281.16;6100553;23;20346;-66
2021/11/30 02:55:59;;;;;;;1.80;1.70;;;;;;;10.38;87.42;95270.38;6125068;23;20018;-68
2021/11/30 02:58:25;;;;;;;1.60;1.60;;;;;;;10.45;86.78;95276.44;6099742;23;20487;-68
2021/11/30 03:00:52;;;;;;;1.63;1.58;;;;;;;10.64;86.76;95272.25;6124866;23;20104;-69
2021/11/30 03:03:18;;;;;;;1.50;1.50;;;;;;;10.72;85.99;95273.91;6150449;23;20441;-69
2021/11/30 03:05:44;;;;;;;1.50;1.40;;;;;;;10.84;85.57;95261.88;6124868;23;20332;-67
2021/11/30 03:08:10;;;;;;;1.83;1.73;;;;;;;10.98;84.86;95273.94;6124622;23;20029;-67
2021/11/30 03:10:36;;;;;;;1.40;1.40;;;;;;;11.08;85.15;95273.53;6150587;23;20021;-68
2021/11/30 03:13:02;;;;;;;1.42;1.42;;;;;;;11.16;84.62;95279.34;6124492;23;20056;-65
2021/11/30 03:15:28;;;;;;;1.10;1.10;;;;;;;11.41;84.12;95290.81;6150461;23;20017;-65
2021/11/30 03:17:55;;;;;;;1.10;1.10;;;;;;;11.64;83.24;95274.72;6124487;23;20025;-65
2021/11/30 03:20:24;;;;;;;1.10;1.10;;;;;;;11.83;81.90;95273.94;6150495;23;20031;-67
2021/11/30 03:22:50;;;;;;;1.00;1.00;;;;;;;11.90;81.70;95266.88;6151202;23;20021;-67
2021/11/30 03:25:16;;;;;;;1.00;1.00;;;;;;;11.95;81.12;95280.13;6149383;23;20041;-64
2021/11/30 03:27:45;;;;;;;1.33;1.10;;;;;;;11.83;80.67;95279.16;6124479;23;20096;-63
2021/11/30 03:30:11;;;;;;;0.85;0.85;;;;;;;11.72;81.12;95292.00;6150760;23;20563;-65
2021/11/30 03:35:22;;;;;;;1.02;1.02;;;;;;;11.63;80.79;95274.91;6150550;23;20036;-64
2021/11/30 03:37:49;;;;;;;0.90;0.90;;;;;;;11.55;81.06;95302.03;6150639;23;20048;-64
2021/11/30 03:40:15;;;;;;;1.10;1.10;;;;;;;11.48;80.42;95296.81;6125428;23;20476;-63
2021/11/30 03:42:41;;;;;;;1.38;1.10;;;;;;;11.45;81.49;95305.06;6150483;23;20052;-64
2021/11/30 03:45:08;;;;;;;0.70;0.70;;;;;;;11.40;81.00;95310.09;6150762;23;20420;-63
2021/11/30 03:47:34;;;;;;;0.80;0.80;;;;;;;11.34;80.77;95300.47;6150465;23;20024;-63
2021/11/30 03:50:01;;;;;;;0.90;0.90;;;;;;;11.31;80.57;95297.44;6150753;23;20097;-63
2021/11/30 03:52:27;;;;;;;1.85;1.00;;;;;;;11.25;80.46;95291.22;6150265;23;20021;-64
2021/11/30 03:54:53;;;;;;;0.85;0.85;;;;;;;11.14;79.78;95273.53;6150462;23;20017;-64
2021/11/30 03:57:19;;;;;;;0.75;0.60;;;;;;;11.05;80.30;95311.28;6150167;23;20025;-64
2021/11/30 03:59:45;;;;;;;0.70;0.70;;;;;;;10.99;81.27;95338.16;6150579;23;20028;-64
2021/11/30 04:02:15;;;;;;;0.80;0.80;;;;;;;11.03;81.19;95336.75;6150388;23;20018;-63
2021/11/30 04:04:43;;;;;;;0.50;0.50;;;;;;;10.87;79.36;95308.41;6150272;23;20017;-63
2021/11/30 04:07:10;;;;;;;0.60;0.60;;;;;;;10.78;78.91;95241.81;6149931;23;20048;-63
2021/11/30 04:09:36;;;;;;;0.60;0.60;;;;;;;10.71;77.64;95308.78;6148701;23;20021;-63
2021/11/30 04:12:04;;;;;;;0.60;0.60;;;;;;;10.63;78.53;95367.16;6147664;23;20626;-62
2021/11/30 04:14:30;;;;;;;1.73;0.50;;;;;;;10.50;77.27;95348.03;6147783;23;20427;-62
2021/11/30 04:16:57;;;;;;;0.50;0.50;;;;;;;10.44;77.96;95389.50;6147863;23;20017;-64
2021/11/30 04:19:23;;;;;;;0.50;0.50;;;;;;;10.39;77.20;95333.75;6147719;23;20025;-64
2021/11/30 04:21:49;;;;;;;0.65;0.65;;;;;;;10.25;75.93;95381.56;6121573;23;20039;-63
2021/11/30 04:24:15;;;;;;;0.60;0.60;;;;;;;10.18;75.87;95397.16;6147954;23;20028;-68
2021/11/30 04:26:41;;;;;;;0.68;0.68;;;;;;;9.96;76.26;95403.41;6149385;23;20096;-68
2021/11/30 04:29:07;;;;;;;0.60;0.60;;;;;;;9.86;77.03;95415.94;6150193;23;20555;-68
2021/11/30 04:31:35;;;;;;;0.60;0.60;;;;;;;9.71;77.56;95438.66;6149726;23;20018;-68
2021/11/30 04:34:03;;;;;;;0.60;0.60;;;;;;;9.62;77.44;95427.56;6150169;23;20088;-68
2021/11/30 04:36:30;;;;;;;0.95;0.60;;;;;;;9.48;76.90;95456.28;6144942;23;20018;-72
2021/11/30 04:38:56;;;;;;;0.50;0.50;;;;;;;9.30;78.20;95415.88;6148239;23;20115;-68
2021/11/30 04:41:23;;;;;;;0.50;0.50;;;;;;;9.24;78.81;95450.44;6148749;23;20413;-69
2021/11/30 04:43:49;;;;;;;0.60;0.60;;;;;;;9.02;78.15;95386.38;6148878;23;20342;-68
2021/11/30 04:48:53;;;;;;;1.35;0.70;;;;;;;8.76;77.79;95449.28;6119314;23;20022;-69
2021/11/30 04:51:19;;;;;;;0.77;0.77;;;;;;;8.71;79.90;95480.19;6118389;23;20024;-69
2021/11/30 04:53:46;;;;;;;0.70;0.70;;;;;;;8.64;80.15;95494.09;6118947;23;20397;-68
2021/11/30 04:56:16;;;;;;;0.80;0.80;;;;;;;8.55;80.66;95482.16;6142673;23;20468;-69
2021/11/30 04:58:45;;;;;;;3.38;0.93;;;;;;;8.48;81.15;95470.88;6094026;23;20988;-69
2021/11/30 05:01:11;;;;;;;2.47;0.70;;;;;;;8.46;80.67;95493.66;6119837;23;20022;-70
2021/11/30 05:03:37;;;;;;;0.70;0.70;;;;;;;8.46;81.33;95545.59;6085013;23;20058;-68
2021/11/30 05:06:03;;;;;;;0.57;0.57;;;;;;;8.42;81.02;95541.75;6092520;23;20097;-68
2021/11/30 05:08:30;;;;;;;0.75;0.60;;;;;;;8.40;81.18;95548.91;6117405;23;20145;-69
2021/11/30 05:10:56;;;;;;;0.60;0.60;;;;;;;8.40;81.77;95496.97;6118961;23;20025;-67
2021/11/30 05:13:22;;;;;;;0.50;0.50;;;;;;;8.37;81.00;95555.28;6117165;23;20068;-67
2021/11/30 05:15:48;;;;;;;0.60;0.60;;;;;;;8.34;81.52;95572.00;6114423;23;20022;-67
2021/11/30 05:18:14;;;;;;;0.50;0.50;;;;;;;8.35;81.80;95568.44;6116097;23;20108;-67
2021/11/30 05:20:41;;;;;;;0.63;0.60;;;;;;;8.33;80.27;95554.00;6116534;23;20292;-67
2021/11/30 05:23:07;;;;;;;0.68;0.68;;;;;;;8.33;80.49;95572.19;6117273;23;20014;-67
2021/11/30 05:25:34;;;;;;;0.52;0.52;;;;;;;8.31;81.06;95593.13;6116995;23;20026;-67
2021/11/30 05:28:02;;;;;;;0.50;0.50;;;;;;;8.31;80.67;95572.34;6119053;23;20022;-67
2021/11/30 05:30:36;;;;;;;0.90;0.90;;;;;;;8.34;81.19;95613.56;6122451;23;20018;-73
2021/11/30 05:33:08;;;;;;;0.60;0.60;;;;;;;8.34;80.85;95551.22;6120935;23;20018;-70
2021/11/30 05:35:34;;;;;;;0.60;0.60;;;;;;;8.34;80.72;95602.38;6122419;23;20022;-71
2021/11/30 05:38:00;;;;;;;0.70;0.70;;;;;;;8.32;81.39;95602.56;6122514;23;20101;-70
2021/11/30 05:40:26;;;;;;;0.55;0.55;;;;;;;8.38;81.69;95639.22;6122794;23;20104;-72
2021/11/30 05:42:53;;;;;;;0.55;0.55;;;;;;;8.38;81.76;95641.81;6122821;23;20021;-64
2021/11/30 05:45:19;;;;;;;0.60;0.60;;;;;;;8.38;82.09;95625.22;6121814;23;20018;-64
2021/11/30 05:47:45;;;;;;;0.60;0.60;;;;;;;8.42;81.43;95643.06;6122308;23;20707;-64
2021/11/30 05:50:11;;;;;;;0.60;0.60;;;;;;;8.38;80.16;95640.81;6120815;23;20029;-68
2021/11/30 05:52:37;;;;;;;0.52;0.52;;;;;;;8.38;79.08;95661.59;6122478;23;20369;-70
2021/11/30 05:55:04;;;;;;;0.70;0.70;;;;;;;8.36;78.00;95598.63;6122093;23;20493;-67
2021/11/30 05:57:31;;;;;;;0.80;0.80;;;;;;;8.33;77.06;95631.94;6122084;23;20029;-67
2021/11/30 06:00:00;;;;;;;0.80;0.80;;;;;;;8.23;75.92;95633.94;6145589;23;20068;-67
2021/11/30 06:02:29;;;;;;;0.90;0.90;;;;;;;8.21;75.53;95608.13;6121094;23;20052;-74
2021/11/30 06:04:55;;;;;;;0.73;0.73;;;;;;;8.25;76.27;95657.94;6121850;23;20109;-66
2021/11/30 06:07:21;;;;;;;2.17;0.80;;;;;;;8.24;76.85;95646.75;6120029;23;20022;-69
2021/11/30 06:09:47;;;;;;;0.57;0.57;;;;;;;8.29;77.90;95673.03;6118841;23;20045;-69
2021/11/30 06:12:13;;;;;;;0.70;0.70;;;;;;;8.27;78.22;95656.81;6119843;23;20025;-68
2021/11/30 06:14:39;;;;;;;0.70;0.70;;;;;;;8.22;77.83;95685.06;6119610;23;20361;-69
2021/11/30 06:17:06;;;;;;;0.70;0.70;;;;;;;8.20;78.21;95694.81;6120237;23;20021;-68
2021/11/30 06:19:34;;;;;;;0.70;0.70;;;;;;;8.19;78.07;95692.38;6121002;23;20018;-70
2021/11/30 06:22:01;;;;;;;0.95;0.95;;;;;;;8.14;78.71;95700.72;6119569;23;20030;-68
2021/11/30 06:24:27;;;;;;;0.70;0.70;;;;;;;8.07;78.41;95689.38;6120947;23;20500;-69
2021/11/30 06:26:53;;;;;;;0.80;0.80;;;;;;;8.00;78.38;95692.81;6120934;23;20022;-69
2021/11/30 06:29:19;;;;;;;0.90;0.90;;;;;;;7.90;77.66;95718.19;6096466;23;20022;-67
2021/11/30 06:31:45;;;;;;;0.80;0.80;;;;;;;7.90;78.26;95693.03;6118804;23;20025;-67
2021/11/30 06:34:11;;;;;;;2.17;1.88;;;;;;;7.87;78.38;95729.72;6121852;23;20028;-67
2021/11/30 06:36:38;;;;;;;0.90;0.90;;;;;;;7.82;77.67;95686.09;6121807;23;20045;-68
2021/11/30 06:39:04;;;;;;;0.70;0.70;;;;;;;7.76;76.85;95709.31;6123178;23;20029;-68
2021/11/30 06:41:30;;;;;;;0.80;0.80;;;;;;;7.75;76.48;95715.50;6123117;23;20109;-69
2021/11/30 06:43:56;;;;;;;0.90;0.90;;;;;;;7.72;75.47;95708.06;6123278;23;20045;-67
2021/11/30 06:46:22;;;;;;;0.88;0.88;;;;;;;7.71;76.03;95709.84;6123296;23;20044;-67
2021/11/30 06:48:48;;;;;;;0.85;0.85;;;;;;;7.78;76.73;95754.09;6122945;23;20037;-67
2021/11/30 06:51:15;;;;;;;0.90;0.90;;;;;;;7.81;76.40;95741.59;6123336;23;20124;-68
2021/11/30 06:53:41;;;;;;;0.90;0.90;;;;;;;7.82;76.54;95753.56;6122821;23;20073;-67
2021/11/30 06:56:07;;;;;;;1.00;1.00;;;;;;;7.83;75.98;95744.00;6123275;23;20026;-67
2021/11/30 06:58:33;;;;;;;0.80;0.80;;;;;;;7.88;75.98;95748.72;6122529;23;20442;-67
2021/11/30 07:00:59;;;;;;;1.00;1.00;;;;;;;7.94;74.45;95764.41;6121698;23;20017;-67
2021/11/30 07:03:25;;;;;;;1.05;1.05;;;;;;;7.92;74.67;95753.38;6122993;23;20432;-67
2021/11/30 07:06:02;;;;;;;0.88;0.80;;;;;;;7.98;75.03;95778.69;6122878;23;20026;-67
2021/11/30 07:08:48;;;;;;;0.75;0.75;;;;;;;7.94;73.98;95782.59;6122903;23;20108;-67
2021/11/30 07:11:52;;;;;;;0.88;0.88;;;;;;;8.02;75.43;95790.34;6121722;23;20458;-67
2021/11/30 07:14:01;;;;;;;1.00;1.00;;;;;;;8.06;74.56;95788.22;6141573;23;20018;-67
2021/11/30 07:16:27;;;;;;;1.15;1.10;;;;;;;8.05;73.57;95771.81;6122942;23;20096;-67
2021/11/30 07:18:54;;;;;;;1.00;1.00;;;;;;;8.11;72.96;95785.94;6122400;23;20022;-67
2021/11/30 07:21:20;;;;;;;1.00;1.00;;;;;;;8.20;72.65;95762.34;6121241;23;20073;-67
2021/11/30 07:23:46;;;;;;;0.90;0.90;;;;;;;8.18;72.01;95790.25;6122509;23;20088;-67
2021/11/30 07:26:12;;;;;;;0.88;0.88;;;;;;;8.16;73.17;95771.47;6123211;23;20024;-67
2021/11/30 07:28:38;;;;;;;0.90;0.90;;;;;;;8.10;71.70;95792.91;6122496;23;20461;-67
2021/11/30 07:31:09;;;;;;;0.90;0.90;;;;;;;8.25;72.73;95777.41;6121348;23;20022;-67
2021/11/30 07:33:37;;;;;;;;;;;;;;;8.20;71.49;95766.75;6144889;23;20049;-67
2021/11/30 07:36:04;;;;;;;0.90;0.90;;;;;;;8.17;70.18;95774.88;6125220;23;19923;-68
2021/11/30 07:38:31;;;;;;;1.10;1.10;;;;;;;8.24;71.04;95813.00;6120973;23;20034;-68
2021/11/30 07:41:01;;;;;;;1.20;1.20;;;;;;;8.17;69.87;95772.28;6118362;23;20405;-68
2021/11/30 07:43:28;;;;;;;0.80;0.80;;;;;;;8.05;71.47;95791.81;6121620;23;20017;-66
2021/11/30 07:45:53;;;;;;;0.90;0.90;;;;;;;7.97;70.88;95813.41;6121117;23;20497;-66
2021/11/30 07:48:21;;;;;;;1.00;1.00;;;;;;;7.98;71.70;95772.69;6121576;23;20025;-65
2021/11/30 07:50:47;;;;;;;0.98;0.98;;;;;;;7.89;71.95;95761.50;6121508;23;20105;-66
2021/11/30 07:53:13;;;;;;;0.98;0.98;;;;;;;7.83;70.50;95773.38;6121382;23;20129;-66
2021/11/30 07:55:39;;;;;;;0.90;0.90;;;;;;;7.81;72.03;95738.19;6119830;23;20017;-69
2021/11/30 07:58:06;;;;;;;0.82;0.82;;;;;;;7.78;71.16;95777.47;6120074;23;20025;-74
2021/11/30 08:00:32;;;;;;;0.80;0.80;;;;;;;7.78;71.91;95787.84;6120692;23;20077;-69
2021/11/30 08:02:58;;;;;;;1.10;1.10;;;;;;;7.70;72.37;95754.94;6119390;23;20032;-69
2021/11/30 08:05:24;;;;;;;2.17;1.00;;;;;;;7.53;72.23;95797.44;6141211;23;20242;-68
2021/11/30 08:07:50;;;;;;;1.02;0.93;;;;;;;7.46;73.41;95780.13;6116927;23;20282;-69
2021/11/30 08:10:18;;;;;;;1.00;1.00;;;;;;;7.43;73.74;95789.03;6117078;23;20025;-68
2021/11/30 08:12:44;;;;;;;1.02;1.02;;;;;;;7.38;72.38;95782.72;6117628;23;20049;-69
2021/11/30 08:15:11;;;;;;;0.90;0.90;;;;;;;7.26;72.11;95775.28;6117558;23;20466;-68
2021/11/30 08:17:37;;;;;;;1.00;1.00;;;;;;;7.17;72.29;95781.47;6118360;23;20026;-68
2021/11/30 08:20:04;;;;;;;0.90;0.90;;;;;;;7.16;71.49;95777.25;6118313;23;20101;-68
2021/11/30 08:22:30;;;;;;;1.15;1.10;;;;;;;7.23;71.77;95792.97;6093632;23;20255;-68
2021/11/30 08:24:56;;;;;;;1.00;1.00;;;;;;;7.27;71.96;95784.69;6141361;23;20022;-67
2021/11/30 08:27:23;;;;;;;1.00;1.00;;;;;;;7.22;71.32;95765.41;6118491;23;20022;-67
2021/11/30 08:29:50;;;;;;;2.38;1.17;;;;;;;7.15;72.48;95770.44;6120721;23;20053;-66
2021/11/30 08:32:20;;;;;;;1.05;1.05;;;;;;;7.18;71.26;95775.31;6120055;23;20056;-66
2021/11/30 08:34:46;;;;;;;1.00;1.00;;;;;;;7.13;71.34;95782.75;6120977;23;20037;-67
2021/11/30 08:37:12;;;;;;;2.03;1.25;;;;;;;7.02;69.47;95767.53;6096466;23;20370;-68
2021/11/30 08:39:39;;;;;;;1.17;1.17;;;;;;;7.01;70.31;95797.03;6120895;23;20022;-68
2021/11/30 08:42:08;;;;;;;1.00;1.00;;;;;;;7.13;70.29;95777.56;6123261;23;20028;-68
2021/11/30 08:44:34;;;;;;;1.05;1.05;;;;;;;7.20;68.40;95773.34;6144041;23;20470;-68
2021/11/30 08:47:00;;;;;;;1.27;1.17;;;;;;;7.25;68.29;95765.09;6119812;23;20378;-68
2021/11/30 08:49:27;;;;;;;3.40;1.20;;;;;;;7.22;68.35;95761.03;6120646;23;20066;-68
2021/11/30 08:51:56;;;;;;;0.95;0.95;;;;;;;6.99;67.71;95765.28;6118969;23;20029;-68
2021/11/30 08:54:22;;;;;;;1.00;0.95;;;;;;;6.85;68.18;95794.41;6119103;23;20021;-68
2021/11/30 08:56:48;;;;;;;1.35;1.10;;;;;;;6.83;71.33;95783.41;6120601;23;20018;-68
2021/11/30 08:59:14;;;;;;;1.17;1.17;;;;;;;6.76;70.62;95785.84;6120510;23;20033;-68
2021/11/30 09:01:41;;;;;;;0.90;0.90;;;;;;;6.72;69.81;95783.72;6120607;23;20358;-68
2021/11/30 09:04:07;;;;;;;1.25;1.15;;;;;;;6.62;70.32;95772.69;6143736;23;20056;-68
2021/11/30 09:06:33;;;;;;;1.25;1.20;;;;;;;6.74;71.11;95807.72;6143710;23;20418;-68
2021/11/30 09:08:59;;;;;;;1.75;1.10;;;;;;;6.77;70.23;95784.84;6120989;23;20358;-68
2021/11/30 09:11:25;;;;;;;1.10;1.10;;;;;;;6.73;69.68;95786.16;6119197;23;20481;-68
2021/11/30 09:13:52;;;;;;;0.90;0.90;;;;;;;6.66;70.56;95818.88;6120513;23;20378;-68
2021/11/30 09:16:19;;;;;;;1.65;1.20;;;;;;;6.59;69.92;95817.06;6121248;23;20025;-67
2021/11/30 09:18:45;;;;;;;1.00;1.00;;;;;;;6.59;71.48;95798.94;6122139;23;20030;-69
2021/11/30 09:21:11;;;;;;;1.17;1.17;;;;;;;6.57;71.33;95791.31;6121950;23;20022;-66
2021/11/30 09:23:38;;;;;;;2.17;1.20;;;;;;;6.56;71.30;95796.66;6121295;23;20351;-66
2021/11/30 09:26:04;;;;;;;1.00;1.00;;;;;;;6.52;71.64;95803.13;6120468;23;20049;-66
2021/11/30 09:28:30;;;;;;;1.35;1.27;;;;;;;6.43;71.62;95788.53;6120716;23;20465;-65
2021/11/30 09:30:56;;;;;;;1.10;1.10;;;;;;;6.45;72.14;95777.03;6120066;23;20022;-67
2021/11/30 09:33:22;;;;;;;1.00;1.00;;;;;;;6.43;70.23;95783.34;6120448;23;20446;-66
2021/11/30 09:35:48;;;;;;;1.00;1.00;;;;;;;6.45;68.78;95784.00;6119823;23;20024;-66
2021/11/30 09:38:14;;;;;;;0.95;0.95;;;;;;;6.46;69.53;95801.16;6120056;23;20022;-66
2021/11/30 09:40:41;;;;;;;0.88;0.88;;;;;;;6.46;70.87;95783.84;6094669;23;20014;-66
2021/11/30 09:43:07;;;;;;;1.00;1.00;;;;;;;6.41;68.72;95786.13;6120251;23;20452;-66
2021/11/30 09:45:37;;;;;;;1.10;1.10;;;;;;;6.39;70.55;95787.22;6119166;23;20106;-65
2021/11/30 09:48:03;;;;;;;1.00;1.00;;;;;;;6.35;70.01;95760.03;6120194;23;20025;-66
2021/11/30 09:50:29;;;;;;;1.30;1.20;;;;;;;6.25;69.57;95786.06;6120349;23;20029;-65
2021/11/30 09:52:56;;;;;;;0.88;0.88;;;;;;;6.26;70.03;95787.69;6120280;23;20088;-65
2021/11/30 09:55:23;;;;;;;1.33;0.90;;;;;;;6.20;70.07;95783.94;6121214;23;20022;-65
2021/11/30 09:57:50;;;;;;;1.15;1.15;;;;;;;6.16;69.46;95793.00;6142704;23;20025;-65
2021/11/30 10:00:18;;;;;;;1.30;1.20;;;;;;;6.16;70.40;95777.47;6120189;23;20028;-65
2021/11/30 10:02:44;;;;;;;1.13;1.10;;;;;;;6.16;71.08;95772.28;6120064;23;20041;-65
2021/11/30 10:05:10;;;;;;;1.27;1.27;;;;;;;6.23;70.63;95768.09;6120522;23;20061;-68
2021/11/30 10:07:43;;;;;;;1.10;1.10;;;;;;;6.32;69.79;95775.88;6144828;23;20088;-67
2021/11/30 10:10:24;;;;;;;1.10;1.10;;;;;;;6.40;69.97;95770.72;6121317;23;20457;-68
2021/11/30 10:12:59;;;;;;;1.10;1.00;;;;;;;6.45;69.64;95750.31;6117224;23;20025;-67
2021/11/30 10:15:29;;;;;;;0.90;0.90;;;;;;;6.50;69.19;95767.03;6120382;23;20057;-67
2021/11/30 10:18:17;;;;;;;1.20;1.20;;;;;;;6.64;67.47;95737.88;6121113;23;20030;-67
2021/11/30 10:20:44;;;;;;;2.55;1.25;;;;;;;6.74;67.41;95735.16;6119980;23;20101;-67
2021/11/30 10:23:11;;;;;;;1.13;1.13;;;;;;;6.67;67.52;95749.72;6121939;23;20070;-66
2021/11/30 10:25:40;;;;;;;1.30;1.30;;;;;;;6.60;68.42;95754.75;6144364;23;20450;-65
2021/11/30 10:28:09;;;;;;;1.52;1.45;;;;;;;6.54;68.99;95755.38;6144290;23;20457;-65
2021/11/30 10:30:37;;;;;;;1.33;1.33;;;;;;;6.40;69.11;95740.47;6122196;23;20025;-66
2021/11/30 10:33:15;;;;;;;1.27;1.27;;;;;;;6.26;70.13;95754.84;6121201;23;20021;-66
2021/11/30 10:35:42;;;;;;;1.20;1.20;;;;;;;6.13;70.47;95730.38;6121350;23;20030;-66
2021/11/30 10:38:08;;;;;;;1.25;1.25;;;;;;;6.04;71.51;95729.56;6120108;23;20025;-65
2021/11/30 10:40:39;;;;;;;1.48;1.38;;;;;;;5.91;71.27;95746.47;6121898;23;20018;-66
2021/11/30 10:43:09;;;;;;;1.25;1.25;;;;;;;5.78;71.54;95752.88;6119990;23;20454;-67
2021/11/30 10:45:43;;;;;;;1.33;1.23;;;;;;;5.70;72.65;95739.91;6121389;23;20022;-67
2021/11/30 10:48:19;;;;;;;1.27;1.27;;;;;;;5.60;72.66;95748.75;6121217;23;20022;-67
2021/11/30 10:50:52;;;;;;;1.10;1.10;;;;;;;5.51;73.25;95737.56;6123035;23;20465;-67
2021/11/30 10:53:23;;;;;;;1.15;1.15;;;;;;;5.44;73.36;95723.63;6145544;23;20013;-68
2021/11/30 10:55:54;;;;;;;1.15;1.15;;;;;;;5.37;73.47;95737.31;6122965;23;20485;-69
2021/11/30 10:58:22;;;;;;;1.20;1.20;;;;;;;5.33;74.39;95736.00;6121477;23;20022;-66
2021/11/30 11:00:48;;;;;;;1.20;1.20;;;;;;;5.28;74.57;95740.81;6122856;23;20025;-67
2021/11/30 11:03:24;;;;;;;1.30;1.30;;;;;;;5.24;74.02;95732.56;6144124;23;20033;-67
2021/11/30 11:08:44;;;;;;;1.10;1.10;;;;;;;5.10;75.14;95736.53;6119800;23;20405;-65
2021/11/30 11:11:16;;;;;;;1.10;1.10;;;;;;;5.00;74.75;95728.06;6122940;23;20095;-70
2021/11/30 11:13:43;;;;;;;1.10;1.10;;;;;;;4.96;74.80;95728.50;6122071;23;20017;-67
2021/11/30 11:16:30;;;;;;;1.55;1.45;;;;;;;4.81;75.21;95735.19;6071660;23;20024;-66
2021/11/30 11:19:04;;;;;;;1.25;1.25;;;;;;;4.76;76.23;95748.53;6121374;23;20052;-67
2021/11/30 11:21:34;;;;;;;1.30;1.30;;;;;;;4.67;76.48;95718.47;6121477;23;20072;-66
2021/11/30 11:24:07;;;;;;;1.20;1.20;;;;;;;4.68;76.45;95740.72;6121144;23;20157;-67
2021/11/30 11:26:41;;;;;;;1.17;1.17;;;;;;;4.69;76.76;95729.44;6122622;23;20370;-67
2021/11/30 11:29:11;;;;;;;1.30;1.30;;;;;;;4.69;76.53;95726.84;6098643;23;20088;-69
2021/11/30 11:31:39;;;;;;;1.20;1.20;;;;;;;4.72;77.45;95739.47;6121023;23;20053;-68
2021/11/30 11:34:05;;;;;;;1.60;1.50;;;;;;;4.68;76.59;95707.16;6143507;23;20116;-69
2021/11/30 11:36:31;;;;;;;1.40;1.40;;;;;;;4.65;77.02;95721.19;6121333;23;20049;-69
2021/11/30 11:38:58;;;;;;;1.10;1.10;;;;;;;4.67;76.32;95719.28;6120690;23;20045;-69
2021/11/30 11:41:24;;;;;;;1.30;1.30;;;;;;;4.67;76.92;95715.88;6119681;23;20014;-65
2021/11/30 11:43:51;;;;;;;1.30;1.20;;;;;;;4.61;75.59;95709.53;6116784;23;20029;-67
2021/11/30 11:46:17;;;;;;;1.20;1.20;;;;;;;4.64;76.26;95673.09;6121512;23;20029;-65
2021/11/30 11:48:46;;;;;;;1.25;1.20;;;;;;;4.59;75.79;95702.88;6143251;23;20022;-67
2021/11/30 11:51:12;;;;;;;1.30;1.30;;;;;;;4.56;76.68;95716.09;6119884;23;20021;-66
2021/11/30 11:53:39;;;;;;;1.30;1.23;;;;;;;4.56;76.71;95721.25;6121025;23;20154;-66
2021/11/30 11:56:17;;;;;;;1.30;1.30;;;;;;;4.46;76.58;95717.94;6120186;23;20339;-66
2021/11/30 11:58:45;;;;;;;1.30;1.30;;;;;;;4.45;76.58;95709.38;6119720;23;20021;-68